createdAt,value
2019-01-17T04:03:59.586Z,98796.91
2019-01-17T04:06:28.765Z,98795.78
2019-01-17T04:08:57.960Z,98797.03
2019-01-17T04:11:27.124Z,98783.19
2019-01-17T04:13:56.400Z,98783.00
2019-01-17T04:16:25.559Z,98780.98
2019-01-17T04:18:54.771Z,98771.61
2019-01-17T04:21:23.923Z,98774.02
2019-01-17T04:23:53.190Z,98773.04
2019-01-17T04:26:22.381Z,98773.12
2019-01-17T04:28:51.567Z,98776.85
2019-01-17T04:31:20.791Z,98776.85
2019-01-17T04:33:50.072Z,98775.42
2019-01-17T04:36:19.306Z,98778.77
2019-01-17T04:38:48.502Z,98767.02
2019-01-17T04:41:17.682Z,98765.74
2019-01-17T04:43:46.901Z,98761.29
2019-01-17T04:46:16.023Z,98755.76
2019-01-17T04:48:45.252Z,98755.27
2019-01-17T04:51:14.460Z,98762.22
2019-01-17T04:53:43.717Z,98757.63
2019-01-17T04:56:12.962Z,98752.94
2019-01-17T04:58:44.883Z,98748.27
2019-01-17T05:01:14.040Z,98747.84
2019-01-17T05:03:43.208Z,98747.69
2019-01-17T05:06:12.519Z,98743.37
2019-01-17T05:08:41.815Z,98742.28
2019-01-17T05:11:10.986Z,98740.97
2019-01-17T05:13:40.154Z,98735.92
2019-01-17T05:16:09.347Z,98737.12
2019-01-17T05:18:38.541Z,98735.58
2019-01-17T05:21:07.721Z,98735.31
2019-01-17T05:23:36.908Z,98727.55
2019-01-17T05:26:06.094Z,98733.30
2019-01-17T05:28:35.304Z,98729.52
2019-01-17T05:31:05.205Z,98729.36
2019-01-17T05:33:34.529Z,98733.75
2019-01-17T05:36:03.747Z,98719.66
2019-01-17T05:38:32.926Z,98716.91
2019-01-17T05:41:02.122Z,98722.19
2019-01-17T05:43:31.503Z,98725.40
2019-01-17T05:46:00.697Z,98726.97
2019-01-17T05:48:29.925Z,98737.23
2019-01-17T05:50:59.196Z,98723.95
2019-01-17T05:53:28.499Z,98730.58
2019-01-17T05:56:00.545Z,98724.84
2019-01-17T05:58:29.673Z,98728.05
2019-01-17T06:00:58.858Z,98719.83
2019-01-17T06:03:28.163Z,98720.74
2019-01-17T06:05:58.946Z,98720.52
2019-01-17T06:08:29.784Z,98718.38
2019-01-17T06:10:59.046Z,98721.16
2019-01-17T06:13:28.292Z,98720.34
2019-01-17T06:15:57.815Z,98709.86
2019-01-17T06:18:26.986Z,98711.95
2019-01-17T06:20:58.798Z,98710.02
2019-01-17T06:23:27.950Z,98710.67
